createdAt,value
2023-05-22T00:01:30.170Z,25.67
2023-05-22T00:03:57.187Z,25.65
2023-05-22T00:06:24.707Z,25.65
2023-05-22T00:08:51.834Z,25.64
2023-05-22T00:11:18.846Z,25.65
2023-05-22T00:13:46.795Z,25.64
2023-05-22T00:16:13.990Z,25.61
2023-05-22T00:18:44.943Z,25.59
2023-05-22T00:21:12.358Z,25.57
2023-05-22T00:23:39.408Z,25.57
2023-05-22T00:26:06.363Z,25.55
2023-05-22T00:28:33.317Z,25.51
2023-05-22T00:31:00.368Z,25.50
2023-05-22T00:33:27.515Z,25.48
2023-05-22T00:35:54.514Z,25.48
2023-05-22T00:38:32.656Z,25.44
2023-05-22T00:41:01.838Z,25.42
2023-05-22T00:43:29.158Z,25.39
2023-05-22T00:45:56.529Z,25.37
2023-05-22T00:48:24.422Z,25.34
2023-05-22T00:50:53.151Z,25.33
2023-05-22T00:53:22.462Z,25.31
2023-05-22T00:55:49.809Z,25.28
2023-05-22T00:58:20.490Z,25.26
2023-05-22T01:00:48.011Z,25.22
2023-05-22T01:03:16.495Z,25.20
2023-05-22T01:05:43.874Z,25.17
2023-05-22T01:08:11.102Z,25.15
2023-05-22T01:10:40.454Z,25.14
2023-05-22T01:13:26.308Z,25.11
2023-05-22T01:16:19.221Z,25.06
2023-05-22T01:19:04.970Z,25.02
2023-05-22T01:22:01.819Z,25.00
2023-05-22T01:24:36.478Z,25.02
2023-05-22T01:27:09.352Z,25.03
2023-05-22T01:30:04.143Z,25.05
2023-05-22T01:32:34.378Z,25.04
2023-05-22T01:35:03.631Z,25.04
2023-05-22T01:37:31.562Z,25.04
2023-05-22T01:39:59.407Z,25.04
2023-05-22T01:42:27.735Z,25.05
2023-05-22T01:44:54.682Z,25.04
2023-05-22T01:47:22.828Z,25.04
2023-05-22T01:49:50.290Z,25.03
2023-05-22T01:52:31.297Z,25.01
2023-05-22T01:55:06.509Z,24.98
2023-05-22T01:57:57.644Z,24.97
2023-05-22T02:00:26.777Z,24.93
2023-05-22T02:03:17.922Z,24.90
2023-05-22T02:05:47.736Z,24.88
2023-05-22T02:08:16.528Z,24.86
2023-05-22T02:10:45.186Z,24.84
2023-05-22T02:13:12.989Z,24.83
2023-05-22T02:15:40.233Z,24.82
2023-05-22T02:18:13.227Z,24.80
2023-05-22T02:20:41.636Z,24.79
2023-05-22T02:23:08.730Z,24.78
2023-05-22T02:25:35.714Z,24.76
2023-05-22T02:28:02.767Z,24.72
2023-05-22T02:30:29.695Z,24.70
2023-05-22T02:33:00.485Z,24.70
2023-05-22T02:35:27.588Z,24.65
2023-05-22T02:37:54.552Z,24.63
2023-05-22T02:40:21.652Z,24.61
2023-05-22T02:42:48.547Z,24.60
2023-05-22T02:45:15.746Z,24.57
2023-05-22T02:47:42.784Z,24.56
2023-05-22T02:50:10.132Z,24.53
2023-05-22T02:52:37.361Z,24.50
2023-05-22T02:55:04.870Z,24.45
2023-05-22T02:57:32.034Z,24.45
2023-05-22T02:59:59.573Z,24.46
2023-05-22T03:02:28.514Z,24.46
2023-05-22T03:04:59.207Z,24.47
2023-05-22T03:07:29.904Z,24.47
2023-05-22T03:09:56.946Z,24.48
2023-05-22T03:12:23.960Z,24.48
2023-05-22T03:14:51.014Z,24.48
2023-05-22T03:17:18.045Z,24.47
2023-05-22T03:19:45.026Z,24.45
2023-05-22T03:22:12.058Z,24.44
2023-05-22T03:24:39.038Z,24.41
2023-05-22T03:27:06.226Z,24.40
2023-05-22T03:29:33.315Z,24.38
2023-05-22T03:32:00.310Z,24.36
2023-05-22T03:34:27.555Z,24.35
2023-05-22T03:36:54.605Z,24.31
2023-05-22T03:39:21.578Z,24.28
2023-05-22T03:41:48.505Z,24.24
2023-05-22T03:44:15.564Z,24.20
2023-05-22T03:46:42.661Z,24.18
2023-05-22T03:49:09.615Z,24.13
2023-05-22T03:51:36.596Z,24.10
2023-05-22T03:54:03.726Z,24.09
2023-05-22T03:56:30.752Z,24.06
2023-05-22T03:58:57.946Z,24.03
2023-05-22T04:01:25.154Z,23.99
2023-05-22T04:03:52.196Z,23.98
2023-05-22T04:06:21.952Z,23.93
2023-05-22T04:08:49.814Z,23.92
2023-05-22T04:11:17.077Z,23.90
2023-05-22T04:13:44.578Z,23.90
2023-05-22T04:16:11.744Z,23.91
2023-05-22T04:18:38.744Z,23.96
2023-05-22T04:21:08.424Z,24.02
2023-05-22T04:23:36.203Z,24.09
2023-05-22T04:26:03.401Z,24.16
2023-05-22T04:28:30.453Z,24.25
2023-05-22T04:31:00.384Z,24.35
2023-05-22T04:33:29.305Z,24.47
2023-05-22T04:35:56.274Z,24.59
2023-05-22T04:38:26.420Z,24.71
2023-05-22T04:40:54.424Z,24.81
2023-05-22T04:43:23.502Z,24.91
2023-05-22T04:45:51.719Z,25.00
2023-05-22T04:48:19.784Z,25.07
2023-05-22T04:50:47.706Z,25.12
2023-05-22T04:53:14.916Z,25.17
2023-05-22T04:55:42.436Z,25.23
2023-05-22T04:58:09.475Z,25.28
2023-05-22T05:00:36.456Z,25.33
2023-05-22T05:03:04.587Z,25.38
2023-05-22T05:05:31.633Z,25.42
2023-05-22T05:07:58.674Z,25.45
2023-05-22T05:10:25.662Z,25.46
2023-05-22T05:12:52.660Z,25.49
2023-05-22T05:15:19.623Z,25.51
2023-05-22T05:17:46.746Z,25.53
2023-05-22T05:20:14.817Z,25.55
2023-05-22T05:22:44.133Z,25.57
2023-05-22T05:25:11.836Z,25.62
2023-05-22T05:27:39.009Z,25.67
2023-05-22T05:30:06.735Z,25.74
2023-05-22T05:32:33.707Z,25.79
2023-05-22T05:35:00.610Z,25.83
2023-05-22T05:37:27.538Z,25.89
2023-05-22T05:39:54.444Z,25.95
2023-05-22T05:42:21.326Z,26.00
2023-05-22T05:44:48.278Z,26.02
2023-05-22T05:47:15.221Z,26.04
2023-05-22T05:49:42.174Z,26.07
2023-05-22T05:52:09.274Z,26.09
2023-05-22T05:54:36.204Z,26.09
2023-05-22T05:57:03.232Z,26.10
2023-05-22T05:59:32.096Z,26.12
2023-05-22T06:01:59.173Z,26.13
2023-05-22T06:04:28.432Z,26.15
2023-05-22T06:06:55.484Z,26.13
2023-05-22T06:09:22.571Z,26.14
2023-05-22T06:11:49.527Z,26.14
2023-05-22T06:14:16.652Z,26.14
2023-05-22T06:16:46.296Z,26.14
2023-05-22T06:19:13.330Z,26.13
2023-05-22T06:21:40.345Z,26.13
2023-05-22T06:24:07.293Z,26.13
2023-05-22T06:26:34.355Z,26.11
2023-05-22T06:29:01.338Z,26.08
2023-05-22T06:31:29.177Z,26.07
2023-05-22T06:33:56.233Z,26.06
2023-05-22T06:36:23.248Z,26.08
2023-05-22T06:38:50.146Z,26.06
2023-05-22T06:41:17.129Z,26.04
2023-05-22T06:43:44.035Z,26.00
2023-05-22T06:46:11.147Z,25.99
2023-05-22T06:48:38.174Z,25.97
2023-05-22T06:51:05.178Z,25.95
2023-05-22T06:53:32.160Z,25.92
2023-05-22T06:55:59.127Z,25.90
2023-05-22T06:58:26.412Z,25.88
2023-05-22T07:00:54.719Z,25.86
2023-05-22T07:03:22.147Z,25.83
2023-05-22T07:05:49.179Z,25.81
2023-05-22T07:08:16.323Z,25.79
2023-05-22T07:10:43.296Z,25.77
2023-05-22T07:13:10.229Z,25.75
2023-05-22T07:15:37.202Z,25.73
2023-05-22T07:18:04.262Z,25.75
2023-05-22T07:20:31.283Z,25.76
2023-05-22T07:22:58.889Z,25.77
2023-05-22T07:25:25.828Z,25.77
2023-05-22T07:27:52.844Z,25.77
2023-05-22T07:30:19.979Z,25.76
2023-05-22T07:32:47.203Z,25.74
2023-05-22T07:35:14.432Z,25.74
2023-05-22T07:37:41.565Z,25.75
2023-05-22T07:40:09.985Z,25.76
2023-05-22T07:42:38.387Z,25.76
2023-05-22T07:45:05.990Z,25.77
2023-05-22T07:47:32.882Z,25.77
2023-05-22T07:49:59.936Z,25.77
2023-05-22T07:52:26.828Z,25.76
2023-05-22T07:54:53.819Z,25.77
2023-05-22T07:57:20.703Z,25.76
2023-05-22T07:59:47.610Z,25.77
2023-05-22T08:02:14.979Z,25.77
2023-05-22T08:04:42.020Z,25.77
2023-05-22T08:07:09.090Z,25.76
2023-05-22T08:09:36.285Z,25.75
2023-05-22T08:12:03.659Z,25.74
2023-05-22T08:14:30.639Z,25.73
2023-05-22T08:16:59.225Z,25.71
2023-05-22T08:19:26.478Z,25.71
2023-05-22T08:21:58.371Z,25.69
2023-05-22T08:24:28.809Z,25.66
2023-05-22T08:26:57.255Z,25.64
2023-05-22T08:29:24.888Z,25.62
2023-05-22T08:31:52.533Z,25.59
2023-05-22T08:34:19.774Z,25.57
2023-05-22T08:36:46.661Z,25.56
2023-05-22T08:39:14.528Z,25.54
2023-05-22T08:41:44.047Z,25.52
2023-05-22T08:44:13.744Z,25.51
2023-05-22T08:46:47.439Z,25.49
2023-05-22T08:49:16.260Z,25.49
2023-05-22T08:51:48.447Z,25.48
2023-05-22T08:54:18.560Z,25.47
2023-05-22T08:56:55.785Z,25.47
2023-05-22T08:59:25.010Z,25.45
2023-05-22T09:01:53.815Z,25.46
2023-05-22T09:04:23.912Z,25.44
2023-05-22T09:06:52.032Z,25.44
2023-05-22T09:09:19.240Z,25.43
2023-05-22T09:11:46.336Z,25.43
2023-05-22T09:14:13.316Z,25.42
2023-05-22T09:16:48.223Z,25.42
2023-05-22T09:19:16.110Z,25.42
2023-05-22T09:21:44.729Z,25.42
2023-05-22T09:24:12.134Z,25.42
2023-05-22T09:26:40.189Z,25.41
2023-05-22T09:29:10.455Z,25.41
2023-05-22T09:31:44.489Z,25.42
2023-05-22T09:34:14.504Z,25.41
2023-05-22T09:36:41.893Z,25.44
2023-05-22T09:39:09.666Z,25.45
2023-05-22T09:41:39.722Z,25.45
2023-05-22T09:44:16.787Z,25.50
2023-05-22T09:46:47.998Z,25.51
2023-05-22T09:49:16.823Z,25.52
2023-05-22T09:51:49.538Z,25.55
2023-05-22T09:54:18.968Z,25.57
2023-05-22T09:56:49.341Z,25.59
2023-05-22T09:59:21.880Z,25.60
2023-05-22T10:01:50.607Z,25.60
2023-05-22T10:04:19.377Z,25.60
2023-05-22T10:06:51.382Z,25.60
2023-05-22T10:09:21.666Z,25.61
2023-05-22T10:11:53.707Z,25.59
2023-05-22T10:14:20.784Z,25.60
2023-05-22T10:16:47.946Z,25.60
2023-05-22T10:19:15.153Z,25.59
2023-05-22T10:21:42.370Z,25.62
2023-05-22T10:24:10.385Z,25.63
2023-05-22T10:26:38.846Z,25.62
2023-05-22T10:29:12.086Z,25.64
2023-05-22T10:31:59.173Z,25.64
2023-05-22T10:34:53.963Z,25.65
2023-05-22T10:37:26.951Z,25.65
2023-05-22T10:40:09.778Z,25.66
2023-05-22T10:42:40.055Z,25.65
2023-05-22T10:45:08.131Z,25.67
2023-05-22T10:47:35.437Z,25.69
2023-05-22T10:50:09.954Z,25.71
2023-05-22T10:52:38.519Z,25.72
2023-05-22T10:55:11.007Z,25.73
2023-05-22T10:57:39.882Z,25.75
2023-05-22T11:00:15.965Z,25.75
2023-05-22T11:02:45.244Z,25.75
2023-05-22T11:05:21.719Z,25.77
2023-05-22T11:07:49.443Z,25.80
2023-05-22T11:10:27.230Z,25.81
2023-05-22T11:13:12.258Z,25.82
2023-05-22T11:15:45.758Z,25.83
2023-05-22T11:18:14.638Z,25.84
2023-05-22T11:20:41.952Z,25.84
2023-05-22T11:23:11.438Z,25.85
2023-05-22T11:25:41.512Z,25.86
2023-05-22T11:28:10.722Z,25.89
2023-05-22T11:30:38.592Z,25.98
2023-05-22T11:33:09.324Z,26.07
2023-05-22T11:35:36.740Z,26.16
2023-05-22T11:38:07.454Z,26.23
2023-05-22T11:40:34.480Z,26.28
2023-05-22T11:43:02.095Z,26.34
2023-05-22T11:45:29.034Z,26.39
2023-05-22T11:47:56.284Z,26.42
2023-05-22T11:50:43.950Z,26.43
2023-05-22T11:53:10.635Z,26.47
2023-05-22T11:55:37.586Z,26.51
2023-05-22T11:58:04.559Z,26.55
2023-05-22T12:00:31.890Z,26.59
2023-05-22T12:02:59.112Z,26.60
2023-05-22T12:05:26.236Z,26.63
2023-05-22T12:07:53.442Z,26.62
2023-05-22T12:10:20.606Z,26.63
2023-05-22T12:12:48.284Z,26.62
2023-05-22T12:15:20.291Z,26.65
2023-05-22T12:17:47.331Z,26.65
2023-05-22T12:20:14.694Z,26.65
2023-05-22T12:22:43.786Z,26.69
2023-05-22T12:25:20.688Z,26.70
2023-05-22T12:27:47.742Z,26.73
2023-05-22T12:30:15.503Z,26.75
2023-05-22T12:32:47.980Z,26.77
2023-05-22T12:35:16.557Z,26.77
2023-05-22T12:37:51.293Z,26.77
2023-05-22T12:40:18.555Z,26.80
2023-05-22T12:42:45.759Z,26.82
2023-05-22T12:45:13.562Z,26.84
2023-05-22T12:47:40.722Z,26.89
2023-05-22T12:50:08.517Z,26.94
2023-05-22T12:52:36.119Z,26.93
2023-05-22T12:55:03.488Z,26.93
2023-05-22T12:57:30.514Z,26.93
2023-05-22T12:59:57.435Z,26.91
2023-05-22T13:02:24.487Z,26.91
2023-05-22T13:04:51.513Z,26.91
2023-05-22T13:07:18.524Z,26.91
2023-05-22T13:09:45.433Z,26.94
2023-05-22T13:12:12.896Z,26.94
2023-05-22T13:14:40.863Z,26.97
2023-05-22T13:17:08.453Z,26.98
2023-05-22T13:19:35.460Z,27.00
2023-05-22T13:22:02.531Z,27.03
2023-05-22T13:24:30.003Z,27.03
2023-05-22T13:26:56.981Z,27.05
2023-05-22T13:29:23.900Z,27.08
2023-05-22T13:31:50.915Z,27.10
2023-05-22T13:34:17.949Z,27.14
2023-05-22T13:36:45.736Z,27.16
2023-05-22T13:39:12.729Z,27.17
2023-05-22T13:41:39.646Z,27.19
2023-05-22T13:44:06.605Z,27.19
2023-05-22T13:46:33.554Z,27.20
2023-05-22T13:49:00.595Z,27.22
2023-05-22T13:51:27.564Z,27.24
2023-05-22T13:53:54.615Z,27.25
2023-05-22T13:56:23.769Z,27.26
2023-05-22T13:58:50.733Z,27.30
2023-05-22T14:01:17.827Z,27.32
2023-05-22T14:03:44.901Z,27.34
2023-05-22T14:06:12.329Z,27.36
2023-05-22T14:08:39.246Z,27.35
2023-05-22T14:11:06.220Z,27.37
2023-05-22T14:13:33.277Z,27.36
2023-05-22T14:16:00.160Z,27.36
2023-05-22T14:18:27.366Z,27.35
2023-05-22T14:20:54.312Z,27.36
2023-05-22T14:23:21.361Z,27.34
2023-05-22T14:25:48.291Z,27.35
2023-05-22T14:28:16.301Z,27.36
2023-05-22T14:30:43.288Z,27.37
2023-05-22T14:33:10.273Z,27.36
2023-05-22T14:35:37.200Z,27.37
2023-05-22T14:38:04.134Z,27.39
2023-05-22T14:40:31.113Z,27.40
2023-05-22T14:42:58.062Z,27.41
2023-05-22T14:45:24.990Z,27.43
2023-05-22T14:47:51.957Z,27.44
2023-05-22T14:50:20.311Z,27.47
2023-05-22T14:52:49.407Z,27.49
2023-05-22T14:55:17.603Z,27.51
2023-05-22T14:57:44.829Z,27.54
2023-05-22T15:00:12.640Z,27.56
2023-05-22T15:02:40.540Z,27.58
2023-05-22T15:05:08.095Z,27.60
2023-05-22T15:07:43.868Z,27.61
2023-05-22T15:10:12.375Z,27.62
2023-05-22T15:12:39.416Z,27.62
2023-05-22T15:15:06.935Z,27.62
2023-05-22T15:17:33.997Z,27.63
2023-05-22T15:20:01.017Z,27.65
2023-05-22T15:22:27.927Z,27.67
2023-05-22T15:25:06.511Z,27.69
2023-05-22T15:27:35.588Z,27.70
2023-05-22T15:30:04.635Z,27.70
2023-05-22T15:32:33.179Z,27.72
2023-05-22T15:35:00.547Z,27.72
2023-05-22T15:37:30.232Z,27.74
2023-05-22T15:39:58.494Z,27.75
2023-05-22T15:42:25.429Z,27.76
2023-05-22T15:44:52.472Z,27.77
2023-05-22T15:47:19.372Z,27.76
2023-05-22T15:49:46.326Z,27.76
2023-05-22T15:52:13.384Z,27.76
2023-05-22T15:54:40.354Z,27.76
2023-05-22T15:57:07.331Z,27.76
2023-05-22T15:59:34.257Z,27.75
2023-05-22T16:02:01.200Z,27.76
2023-05-22T16:04:28.247Z,27.75
2023-05-22T16:06:55.159Z,27.76
2023-05-22T16:09:22.274Z,27.75
2023-05-22T16:11:49.356Z,27.75
2023-05-22T16:14:16.279Z,27.73
2023-05-22T16:16:44.065Z,27.75
2023-05-22T16:19:11.694Z,27.77
2023-05-22T16:21:39.236Z,27.80
2023-05-22T16:24:07.207Z,27.80
2023-05-22T16:26:34.339Z,27.83
2023-05-22T16:29:01.254Z,27.83
2023-05-22T16:31:28.915Z,27.84
2023-05-22T16:33:56.035Z,27.85
2023-05-22T16:36:24.168Z,27.85
2023-05-22T16:38:52.699Z,27.84
2023-05-22T16:41:19.647Z,27.84
2023-05-22T16:43:50.067Z,27.84
2023-05-22T16:46:17.484Z,27.83
2023-05-22T16:48:44.438Z,27.83
2023-05-22T16:51:11.889Z,27.85
2023-05-22T16:53:42.088Z,27.83
2023-05-22T16:56:09.143Z,27.84
2023-05-22T16:58:36.018Z,27.82
2023-05-22T17:01:03.125Z,27.81
2023-05-22T17:03:30.188Z,27.81
2023-05-22T17:05:57.304Z,27.81
2023-05-22T17:08:24.376Z,27.80
2023-05-22T17:10:51.301Z,27.80
2023-05-22T17:13:21.129Z,27.79
2023-05-22T17:15:49.056Z,27.78
2023-05-22T17:18:19.752Z,27.77
2023-05-22T17:20:51.439Z,27.77
2023-05-22T17:23:18.514Z,27.76
2023-05-22T17:25:48.170Z,27.76
2023-05-22T17:28:15.553Z,27.72
2023-05-22T17:30:46.332Z,27.72
2023-05-22T17:33:14.231Z,27.70
2023-05-22T17:35:42.023Z,27.68
2023-05-22T17:38:09.027Z,27.67
2023-05-22T17:40:44.894Z,27.67
2023-05-22T17:43:13.414Z,27.65
2023-05-22T17:45:40.473Z,27.65
2023-05-22T17:48:08.155Z,27.66
2023-05-22T17:50:35.522Z,27.65
2023-05-22T17:53:02.533Z,27.66
2023-05-22T17:55:29.513Z,27.67
2023-05-22T17:57:56.652Z,27.67
2023-05-22T18:00:23.738Z,27.66
2023-05-22T18:02:50.936Z,27.64
2023-05-22T18:05:18.165Z,27.65
2023-05-22T18:07:45.108Z,27.66
2023-05-22T18:10:12.064Z,27.67
2023-05-22T18:12:39.327Z,27.68
2023-05-22T18:15:09.821Z,27.69
2023-05-22T18:17:36.868Z,27.70
2023-05-22T18:20:07.215Z,27.72
2023-05-22T18:22:35.492Z,27.72
2023-05-22T18:25:02.580Z,27.74
2023-05-22T18:27:29.536Z,27.74
2023-05-22T18:29:56.440Z,27.73
2023-05-22T18:32:23.402Z,27.74
2023-05-22T18:34:52.068Z,27.75
2023-05-22T18:37:19.639Z,27.76
2023-05-22T18:39:47.434Z,27.76
2023-05-22T18:42:14.848Z,27.75
2023-05-22T18:44:42.080Z,27.75
2023-05-22T18:47:09.325Z,27.75
2023-05-22T18:49:36.273Z,27.74
2023-05-22T18:52:03.440Z,27.74
2023-05-22T18:54:30.584Z,27.74
2023-05-22T18:56:57.539Z,27.74
2023-05-22T18:59:24.497Z,27.74
2023-05-22T19:01:51.426Z,27.74
2023-05-22T19:04:18.421Z,27.73
2023-05-22T19:06:45.995Z,27.71
2023-05-22T19:09:13.721Z,27.69
2023-05-22T19:11:40.706Z,27.68
2023-05-22T19:14:07.744Z,27.67
2023-05-22T19:16:34.757Z,27.65
2023-05-22T19:19:02.896Z,27.66
2023-05-22T19:21:29.825Z,27.67
2023-05-22T19:23:56.730Z,27.67
2023-05-22T19:26:23.739Z,27.69
2023-05-22T19:28:50.797Z,27.70
2023-05-22T19:31:17.831Z,27.73
2023-05-22T19:33:44.775Z,27.73
2023-05-22T19:36:11.709Z,27.74
2023-05-22T19:38:38.664Z,27.73
2023-05-22T19:41:05.783Z,27.74
2023-05-22T19:43:32.907Z,27.73
2023-05-22T19:45:59.864Z,27.72
2023-05-22T19:48:27.258Z,27.72
2023-05-22T19:50:54.208Z,27.69
2023-05-22T19:53:21.414Z,27.68
2023-05-22T19:55:49.076Z,27.67
2023-05-22T19:58:17.217Z,27.66
2023-05-22T20:00:44.240Z,27.66
2023-05-22T20:03:11.973Z,27.63
2023-05-22T20:05:39.426Z,27.63
2023-05-22T20:08:07.407Z,27.62
2023-05-22T20:10:34.334Z,27.60
2023-05-22T20:13:01.255Z,27.60
2023-05-22T20:15:28.445Z,27.59
2023-05-22T20:17:55.682Z,27.57
2023-05-22T20:20:24.902Z,27.56
2023-05-22T20:22:53.789Z,27.55
2023-05-22T20:25:21.663Z,27.55
2023-05-22T20:27:48.573Z,27.54
2023-05-22T20:30:15.895Z,27.52
2023-05-22T20:32:45.695Z,27.51
2023-05-22T20:35:20.336Z,27.50
2023-05-22T20:37:47.565Z,27.49
2023-05-22T20:40:16.045Z,27.48
2023-05-22T20:42:43.104Z,27.46
2023-05-22T20:45:12.880Z,27.46
2023-05-22T20:47:41.320Z,27.46
2023-05-22T20:50:09.209Z,27.46
2023-05-22T20:52:37.509Z,27.48
2023-05-22T20:55:04.983Z,27.48
2023-05-22T20:57:31.929Z,27.48
2023-05-22T20:59:58.895Z,27.47
2023-05-22T21:02:26.420Z,27.47
2023-05-22T21:04:53.983Z,27.47
2023-05-22T21:07:21.050Z,27.47
2023-05-22T21:09:48.101Z,27.44
2023-05-22T21:12:15.067Z,27.42
2023-05-22T21:14:44.115Z,27.41
2023-05-22T21:17:11.230Z,27.39
2023-05-22T21:19:38.279Z,27.37
2023-05-22T21:22:05.495Z,27.36
2023-05-22T21:24:32.906Z,27.35
2023-05-22T21:26:59.997Z,27.34
2023-05-22T21:29:27.089Z,27.33
2023-05-22T21:31:54.188Z,27.32
2023-05-22T21:34:21.256Z,27.30
2023-05-22T21:36:50.812Z,27.28
2023-05-22T21:39:17.758Z,27.25
2023-05-22T21:41:44.679Z,27.24
2023-05-22T21:44:11.584Z,27.21
2023-05-22T21:46:38.754Z,27.18
2023-05-22T21:49:06.300Z,27.17
2023-05-22T21:51:33.373Z,27.14
2023-05-22T21:54:00.515Z,27.13
2023-05-22T21:56:27.722Z,27.12
2023-05-22T21:58:54.646Z,27.11
2023-05-22T22:01:21.713Z,27.10
2023-05-22T22:03:48.683Z,27.09
2023-05-22T22:06:15.683Z,27.08
2023-05-22T22:08:42.885Z,27.06
2023-05-22T22:11:09.841Z,27.05
2023-05-22T22:13:36.958Z,27.03
2023-05-22T22:16:04.119Z,27.03
2023-05-22T22:18:34.879Z,27.03
2023-05-22T22:21:02.561Z,27.03
2023-05-22T22:23:29.715Z,27.03
2023-05-22T22:25:56.815Z,27.03
2023-05-22T22:28:23.856Z,27.03
2023-05-22T22:30:50.984Z,27.03
2023-05-22T22:33:18.087Z,27.01
2023-05-22T22:35:46.009Z,27.00
2023-05-22T22:38:12.947Z,26.96
2023-05-22T22:40:40.494Z,26.95
2023-05-22T22:43:07.591Z,26.93
2023-05-22T22:45:34.581Z,26.89
2023-05-22T22:48:01.613Z,26.89
2023-05-22T22:50:28.581Z,26.87
2023-05-22T22:52:55.763Z,26.87
2023-05-22T22:55:23.026Z,26.85
2023-05-22T22:57:50.427Z,26.84
2023-05-22T23:00:19.287Z,26.82
2023-05-22T23:02:46.441Z,26.80
2023-05-22T23:05:14.847Z,26.79
2023-05-22T23:07:42.096Z,26.76
2023-05-22T23:10:09.615Z,26.74
2023-05-22T23:12:36.589Z,26.73
2023-05-22T23:15:04.431Z,26.73
2023-05-22T23:17:31.544Z,26.72
2023-05-22T23:19:58.724Z,26.70
2023-05-22T23:22:25.710Z,26.68
2023-05-22T23:24:52.816Z,26.65
2023-05-22T23:27:19.801Z,26.62
2023-05-22T23:29:46.702Z,26.61
2023-05-22T23:32:14.876Z,26.60
2023-05-22T23:34:42.609Z,26.58
2023-05-22T23:37:10.420Z,26.58
2023-05-22T23:39:37.351Z,26.57
2023-05-22T23:42:04.485Z,26.56
2023-05-22T23:44:31.894Z,26.56
2023-05-22T23:46:59.735Z,26.54
2023-05-22T23:49:27.200Z,26.55
2023-05-22T23:51:54.231Z,26.54
2023-05-22T23:54:21.190Z,26.53
2023-05-22T23:56:48.134Z,26.52
2023-05-22T23:59:15.872Z,26.53
